sensor_id;sensor_type;location;lat;lon;timestamp;P1;durP1;ratioP1;P2;durP2;ratioP2
59974;SDS011;62136;-35.664;-63.766;2023-09-08T00:00:20;25.13;;;5.68;;
59974;SDS011;62136;-35.664;-63.766;2023-09-08T00:02:47;32.78;;;6.47;;
59974;SDS011;62136;-35.664;-63.766;2023-09-08T00:05:14;27.20;;;7.15;;
59974;SDS011;62136;-35.664;-63.766;2023-09-08T00:07:41;34.60;;;7.18;;
59974;SDS011;62136;-35.664;-63.766;2023-09-08T00:10:08;31.15;;;6.22;;
59974;SDS011;62136;-35.664;-63.766;2023-09-08T00:12:37;46.60;;;7.60;;
59974;SDS011;62136;-35.664;-63.766;2023-09-08T00:15:05;43.00;;;7.72;;
59974;SDS011;62136;-35.664;-63.766;2023-09-08T00:17:33;36.70;;;7.30;;
59974;SDS011;62136;-35.664;-63.766;2023-09-08T00:20:05;43.33;;;8.02;;
59974;SDS011;62136;-35.664;-63.766;2023-09-08T00:22:37;32.60;;;6.75;;
59974;SDS011;62136;-35.664;-63.766;2023-09-08T00:25:05;42.42;;;7.72;;
59974;SDS011;62136;-35.664;-63.766;2023-09-08T00:27:32;30.73;;;7.05;;
59974;SDS011;62136;-35.664;-63.766;2023-09-08T00:30:02;52.15;;;8.35;;
59974;SDS011;62136;-35.664;-63.766;2023-09-08T00:32:29;48.28;;;8.82;;
59974;SDS011;62136;-35.664;-63.766;2023-09-08T00:34:57;47.10;;;8.25;;
59974;SDS011;62136;-35.664;-63.766;2023-09-08T00:37:24;45.78;;;8.10;;
59974;SDS011;62136;-35.664;-63.766;2023-09-08T00:39:51;49.70;;;8.65;;
59974;SDS011;62136;-35.664;-63.766;2023-09-08T00:42:21;51.10;;;9.48;;
59974;SDS011;62136;-35.664;-63.766;2023-09-08T00:44:48;38.55;;;7.97;;
59974;SDS011;62136;-35.664;-63.766;2023-09-08T00:47:15;37.95;;;7.90;;
59974;SDS011;62136;-35.664;-63.766;2023-09-08T00:49:42;64.45;;;10.25;;
59974;SDS011;62136;-35.664;-63.766;2023-09-08T00:52:09;67.65;;;10.20;;
59974;SDS011;62136;-35.664;-63.766;2023-09-08T00:54:37;57.60;;;10.30;;
59974;SDS011;62136;-35.664;-63.766;2023-09-08T00:57:07;44.63;;;9.02;;
59974;SDS011;62136;-35.664;-63.766;2023-09-08T00:59:36;61.33;;;11.07;;
59974;SDS011;62136;-35.664;-63.766;2023-09-08T01:02:04;51.42;;;10.20;;
59974;SDS011;62136;-35.664;-63.766;2023-09-08T01:04:32;56.90;;;9.20;;
59974;SDS011;62136;-35.664;-63.766;2023-09-08T01:06:59;39.33;;;8.98;;
59974;SDS011;62136;-35.664;-63.766;2023-09-08T01:09:26;61.72;;;10.35;;
59974;SDS011;62136;-35.664;-63.766;2023-09-08T01:11:54;43.03;;;8.93;;
59974;SDS011;62136;-35.664;-63.766;2023-09-08T01:14:26;41.63;;;10.82;;
59974;SDS011;62136;-35.664;-63.766;2023-09-08T01:16:53;33.78;;;9.13;;
59974;SDS011;62136;-35.664;-63.766;2023-09-08T01:19:24;42.85;;;9.52;;
59974;SDS011;62136;-35.664;-63.766;2023-09-08T01:25:15;38.55;;;10.18;;
59974;SDS011;62136;-35.664;-63.766;2023-09-08T01:27:50;41.55;;;10.90;;
59974;SDS011;62136;-35.664;-63.766;2023-09-08T01:30:21;41.88;;;10.65;;
59974;SDS011;62136;-35.664;-63.766;2023-09-08T01:32:51;32.28;;;9.68;;
59974;SDS011;62136;-35.664;-63.766;2023-09-08T01:35:19;30.95;;;11.23;;
59974;SDS011;62136;-35.664;-63.766;2023-09-08T01:37:47;31.05;;;9.90;;
59974;SDS011;62136;-35.664;-63.766;2023-09-08T01:40:15;38.28;;;10.35;;
59974;SDS011;62136;-35.664;-63.766;2023-09-08T01:42:44;26.05;;;10.07;;
59974;SDS011;62136;-35.664;-63.766;2023-09-08T01:45:11;32.47;;;9.45;;
59974;SDS011;62136;-35.664;-63.766;2023-09-08T01:47:38;28.40;;;9.43;;
59974;SDS011;62136;-35.664;-63.766;2023-09-08T01:50:05;32.92;;;10.50;;
59974;SDS011;62136;-35.664;-63.766;2023-09-08T01:52:33;31.30;;;10.75;;
59974;SDS011;62136;-35.664;-63.766;2023-09-08T01:55:00;31.08;;;9.68;;
59974;SDS011;62136;-35.664;-63.766;2023-09-08T01:57:27;30.83;;;8.82;;
59974;SDS011;62136;-35.664;-63.766;2023-09-08T01:59:54;26.00;;;10.02;;
59974;SDS011;62136;-35.664;-63.766;2023-09-08T02:02:21;26.75;;;9.32;;
59974;SDS011;62136;-35.664;-63.766;2023-09-08T02:04:48;18.65;;;8.85;;
59974;SDS011;62136;-35.664;-63.766;2023-09-08T02:07:15;30.88;;;9.35;;
59974;SDS011;62136;-35.664;-63.766;2023-09-08T02:09:45;23.70;;;8.85;;
59974;SDS011;62136;-35.664;-63.766;2023-09-08T02:12:12;24.25;;;8.75;;
59974;SDS011;62136;-35.664;-63.766;2023-09-08T02:14:39;28.55;;;9.23;;
59974;SDS011;62136;-35.664;-63.766;2023-09-08T02:17:06;24.73;;;8.57;;
59974;SDS011;62136;-35.664;-63.766;2023-09-08T02:19:33;22.42;;;8.95;;
59974;SDS011;62136;-35.664;-63.766;2023-09-08T02:22:00;23.00;;;9.00;;
59974;SDS011;62136;-35.664;-63.766;2023-09-08T02:24:27;26.98;;;10.00;;
59974;SDS011;62136;-35.664;-63.766;2023-09-08T02:26:54;26.15;;;9.02;;
59974;SDS011;62136;-35.664;-63.766;2023-09-08T02:29:21;22.33;;;8.82;;
59974;SDS011;62136;-35.664;-63.766;2023-09-08T02:31:52;29.17;;;8.52;;
59974;SDS011;62136;-35.664;-63.766;2023-09-08T02:34:21;21.48;;;8.05;;
59974;SDS011;62136;-35.664;-63.766;2023-09-08T02:36:48;22.65;;;8.63;;
59974;SDS011;62136;-35.664;-63.766;2023-09-08T02:39:16;20.00;;;7.65;;
59974;SDS011;62136;-35.664;-63.766;2023-09-08T02:41:43;16.95;;;7.65;;
59974;SDS011;62136;-35.664;-63.766;2023-09-08T02:44:10;24.67;;;8.85;;
59974;SDS011;62136;-35.664;-63.766;2023-09-08T02:46:37;31.55;;;9.40;;
59974;SDS011;62136;-35.664;-63.766;2023-09-08T02:49:05;22.88;;;8.30;;
59974;SDS011;62136;-35.664;-63.766;2023-09-08T02:51:32;24.60;;;8.63;;
59974;SDS011;62136;-35.664;-63.766;2023-09-08T02:53:59;20.73;;;8.25;;
59974;SDS011;62136;-35.664;-63.766;2023-09-08T02:56:26;20.35;;;7.95;;
59974;SDS011;62136;-35.664;-63.766;2023-09-08T02:58:53;18.23;;;7.38;;
59974;SDS011;62136;-35.664;-63.766;2023-09-08T03:01:20;18.15;;;7.45;;
59974;SDS011;62136;-35.664;-63.766;2023-09-08T03:03:48;13.30;;;6.75;;
59974;SDS011;62136;-35.664;-63.766;2023-09-08T03:06:18;15.93;;;7.63;;
59974;SDS011;62136;-35.664;-63.766;2023-09-08T03:08:46;19.55;;;8.18;;
59974;SDS011;62136;-35.664;-63.766;2023-09-08T03:11:13;14.98;;;6.97;;
59974;SDS011;62136;-35.664;-63.766;2023-09-08T03:13:40;21.75;;;7.70;;
59974;SDS011;62136;-35.664;-63.766;2023-09-08T03:16:07;15.50;;;6.88;;
59974;SDS011;62136;-35.664;-63.766;2023-09-08T03:18:36;15.55;;;6.88;;
59974;SDS011;62136;-35.664;-63.766;2023-09-08T03:21:04;20.30;;;7.25;;
59974;SDS011;62136;-35.664;-63.766;2023-09-08T03:23:38;17.23;;;6.93;;
59974;SDS011;62136;-35.664;-63.766;2023-09-08T03:26:09;16.92;;;7.50;;
59974;SDS011;62136;-35.664;-63.766;2023-09-08T03:28:36;21.33;;;7.65;;
59974;SDS011;62136;-35.664;-63.766;2023-09-08T03:31:04;17.02;;;7.72;;
59974;SDS011;62136;-35.664;-63.766;2023-09-08T03:33:31;19.48;;;7.10;;
59974;SDS011;62136;-35.664;-63.766;2023-09-08T03:35:59;15.52;;;6.53;;
59974;SDS011;62136;-35.664;-63.766;2023-09-08T03:38:29;16.52;;;6.93;;
59974;SDS011;62136;-35.664;-63.766;2023-09-08T03:40:56;16.25;;;6.05;;
59974;SDS011;62136;-35.664;-63.766;2023-09-08T03:43:23;14.75;;;6.97;;
59974;SDS011;62136;-35.664;-63.766;2023-09-08T03:45:50;13.90;;;6.65;;
59974;SDS011;62136;-35.664;-63.766;2023-09-08T03:48:17;14.65;;;6.28;;
59974;SDS011;62136;-35.664;-63.766;2023-09-08T03:50:44;10.60;;;5.88;;
59974;SDS011;62136;-35.664;-63.766;2023-09-08T03:53:12;13.63;;;6.82;;
59974;SDS011;62136;-35.664;-63.766;2023-09-08T03:55:39;18.90;;;6.60;;
59974;SDS011;62136;-35.664;-63.766;2023-09-08T03:58:06;14.45;;;6.57;;
59974;SDS011;62136;-35.664;-63.766;2023-09-08T04:00:36;10.95;;;6.53;;
59974;SDS011;62136;-35.664;-63.766;2023-09-08T04:03:04;14.20;;;6.72;;
59974;SDS011;62136;-35.664;-63.766;2023-09-08T04:05:31;15.55;;;6.82;;
59974;SDS011;62136;-35.664;-63.766;2023-09-08T04:07:58;12.57;;;5.80;;
59974;SDS011;62136;-35.664;-63.766;2023-09-08T04:10:25;12.02;;;6.13;;
59974;SDS011;62136;-35.664;-63.766;2023-09-08T04:12:52;14.05;;;6.18;;
59974;SDS011;62136;-35.664;-63.766;2023-09-08T04:15:19;11.43;;;6.32;;
59974;SDS011;62136;-35.664;-63.766;2023-09-08T04:17:47;13.30;;;6.60;;
59974;SDS011;62136;-35.664;-63.766;2023-09-08T04:20:14;13.70;;;6.03;;
59974;SDS011;62136;-35.664;-63.766;2023-09-08T04:22:42;11.95;;;5.50;;
59974;SDS011;62136;-35.664;-63.766;2023-09-08T04:25:09;11.25;;;5.95;;
59974;SDS011;62136;-35.664;-63.766;2023-09-08T04:27:36;12.80;;;5.75;;
59974;SDS011;62136;-35.664;-63.766;2023-09-08T04:30:04;11.60;;;5.75;;
59974;SDS011;62136;-35.664;-63.766;2023-09-08T04:32:32;8.63;;;5.07;;
59974;SDS011;62136;-35.664;-63.766;2023-09-08T04:34:59;12.43;;;5.45;;
59974;SDS011;62136;-35.664;-63.766;2023-09-08T04:37:26;10.65;;;6.00;;
59974;SDS011;62136;-35.664;-63.766;2023-09-08T04:39:53;10.27;;;6.05;;
59974;SDS011;62136;-35.664;-63.766;2023-09-08T04:42:20;10.80;;;5.97;;
59974;SDS011;62136;-35.664;-63.766;2023-09-08T04:44:48;11.10;;;5.53;;
59974;SDS011;62136;-35.664;-63.766;2023-09-08T04:47:15;11.23;;;5.78;;
59974;SDS011;62136;-35.664;-63.766;2023-09-08T04:49:42;11.15;;;5.25;;
59974;SDS011;62136;-35.664;-63.766;2023-09-08T04:52:10;9.45;;;5.90;;
59974;SDS011;62136;-35.664;-63.766;2023-09-08T04:54:37;8.93;;;5.30;;
59974;SDS011;62136;-35.664;-63.766;2023-09-08T04:57:04;16.95;;;5.88;;
59974;SDS011;62136;-35.664;-63.766;2023-09-08T04:59:32;11.32;;;4.68;;
59974;SDS011;62136;-35.664;-63.766;2023-09-08T05:01:59;12.60;;;5.53;;
59974;SDS011;62136;-35.664;-63.766;2023-09-08T05:04:25;10.45;;;5.28;;
59974;SDS011;62136;-35.664;-63.766;2023-09-08T05:06:52;13.77;;;5.65;;
59974;SDS011;62136;-35.664;-63.766;2023-09-08T05:09:19;8.32;;;4.93;;
59974;SDS011;62136;-35.664;-63.766;2023-09-08T05:11:46;9.52;;;5.00;;
59974;SDS011;62136;-35.664;-63.766;2023-09-08T05:14:13;7.20;;;4.45;;
59974;SDS011;62136;-35.664;-63.766;2023-09-08T05:16:40;8.38;;;5.05;;
59974;SDS011;62136;-35.664;-63.766;2023-09-08T05:19:20;9.82;;;5.35;;
59974;SDS011;62136;-35.664;-63.766;2023-09-08T05:21:49;10.95;;;4.85;;
59974;SDS011;62136;-35.664;-63.766;2023-09-08T05:24:17;11.27;;;5.13;;
59974;SDS011;62136;-35.664;-63.766;2023-09-08T05:26:46;7.05;;;4.85;;
59974;SDS011;62136;-35.664;-63.766;2023-09-08T05:29:13;8.30;;;4.35;;
59974;SDS011;62136;-35.664;-63.766;2023-09-08T05:31:41;8.02;;;4.47;;
59974;SDS011;62136;-35.664;-63.766;2023-09-08T05:34:08;9.18;;;4.95;;
59974;SDS011;62136;-35.664;-63.766;2023-09-08T05:36:35;12.20;;;4.75;;
59974;SDS011;62136;-35.664;-63.766;2023-09-08T05:39:03;9.48;;;4.57;;
59974;SDS011;62136;-35.664;-63.766;2023-09-08T05:41:30;7.70;;;4.70;;
59974;SDS011;62136;-35.664;-63.766;2023-09-08T05:43:59;8.02;;;4.05;;
59974;SDS011;62136;-35.664;-63.766;2023-09-08T05:46:26;7.75;;;4.38;;
59974;SDS011;62136;-35.664;-63.766;2023-09-08T05:48:54;9.05;;;4.18;;
59974;SDS011;62136;-35.664;-63.766;2023-09-08T05:51:21;6.85;;;4.15;;
59974;SDS011;62136;-35.664;-63.766;2023-09-08T05:53:48;8.10;;;4.40;;
59974;SDS011;62136;-35.664;-63.766;2023-09-08T05:56:15;6.60;;;4.32;;
59974;SDS011;62136;-35.664;-63.766;2023-09-08T05:58:44;8.63;;;4.90;;
59974;SDS011;62136;-35.664;-63.766;2023-09-08T06:01:11;9.20;;;4.15;;
59974;SDS011;62136;-35.664;-63.766;2023-09-08T06:03:38;5.30;;;4.07;;
59974;SDS011;62136;-35.664;-63.766;2023-09-08T06:06:06;11.07;;;4.38;;
59974;SDS011;62136;-35.664;-63.766;2023-09-08T06:08:33;7.43;;;4.15;;
59974;SDS011;62136;-35.664;-63.766;2023-09-08T06:11:00;7.80;;;4.45;;
59974;SDS011;62136;-35.664;-63.766;2023-09-08T06:13:27;7.22;;;4.35;;
59974;SDS011;62136;-35.664;-63.766;2023-09-08T06:15:54;5.32;;;3.83;;
59974;SDS011;62136;-35.664;-63.766;2023-09-08T06:18:21;6.43;;;3.90;;
59974;SDS011;62136;-35.664;-63.766;2023-09-08T06:20:48;5.95;;;3.90;;
59974;SDS011;62136;-35.664;-63.766;2023-09-08T06:23:15;6.15;;;3.90;;
59974;SDS011;62136;-35.664;-63.766;2023-09-08T06:25:45;9.30;;;4.00;;
59974;SDS011;62136;-35.664;-63.766;2023-09-08T06:28:12;6.93;;;3.85;;
59974;SDS011;62136;-35.664;-63.766;2023-09-08T06:30:42;7.47;;;3.70;;
59974;SDS011;62136;-35.664;-63.766;2023-09-08T06:33:10;6.45;;;3.42;;
59974;SDS011;62136;-35.664;-63.766;2023-09-08T06:35:37;5.13;;;3.42;;
59974;SDS011;62136;-35.664;-63.766;2023-09-08T06:38:04;6.13;;;4.22;;
59974;SDS011;62136;-35.664;-63.766;2023-09-08T06:40:31;4.75;;;3.50;;
59974;SDS011;62136;-35.664;-63.766;2023-09-08T06:42:58;7.18;;;3.90;;
59974;SDS011;62136;-35.664;-63.766;2023-09-08T06:45:25;6.45;;;3.45;;
59974;SDS011;62136;-35.664;-63.766;2023-09-08T06:47:52;7.88;;;3.55;;
59974;SDS011;62136;-35.664;-63.766;2023-09-08T06:50:21;5.15;;;3.35;;
59974;SDS011;62136;-35.664;-63.766;2023-09-08T06:52:51;5.63;;;3.38;;
59974;SDS011;62136;-35.664;-63.766;2023-09-08T06:55:18;4.53;;;3.67;;
59974;SDS011;62136;-35.664;-63.766;2023-09-08T06:57:45;5.97;;;3.40;;
59974;SDS011;62136;-35.664;-63.766;2023-09-08T07:00:14;4.82;;;2.97;;
59974;SDS011;62136;-35.664;-63.766;2023-09-08T07:02:43;4.03;;;3.33;;
59974;SDS011;62136;-35.664;-63.766;2023-09-08T07:05:09;5.80;;;3.38;;
59974;SDS011;62136;-35.664;-63.766;2023-09-08T07:07:36;4.80;;;3.13;;
59974;SDS011;62136;-35.664;-63.766;2023-09-08T07:10:04;7.45;;;3.50;;
59974;SDS011;62136;-35.664;-63.766;2023-09-08T07:12:31;6.63;;;3.08;;
59974;SDS011;62136;-35.664;-63.766;2023-09-08T07:14:58;6.97;;;3.53;;
59974;SDS011;62136;-35.664;-63.766;2023-09-08T07:17:26;4.72;;;3.45;;
59974;SDS011;62136;-35.664;-63.766;2023-09-08T07:19:53;6.35;;;3.40;;
59974;SDS011;62136;-35.664;-63.766;2023-09-08T07:22:20;4.80;;;3.67;;
59974;SDS011;62136;-35.664;-63.766;2023-09-08T07:24:47;4.00;;;2.85;;
59974;SDS011;62136;-35.664;-63.766;2023-09-08T07:27:14;4.20;;;3.20;;
59974;SDS011;62136;-35.664;-63.766;2023-09-08T07:29:43;5.22;;;3.20;;
59974;SDS011;62136;-35.664;-63.766;2023-09-08T07:32:13;6.45;;;3.35;;
59974;SDS011;62136;-35.664;-63.766;2023-09-08T07:34:40;6.68;;;3.88;;
59974;SDS011;62136;-35.664;-63.766;2023-09-08T07:37:07;5.60;;;3.05;;
59974;SDS011;62136;-35.664;-63.766;2023-09-08T07:39:34;4.70;;;3.08;;
59974;SDS011;62136;-35.664;-63.766;2023-09-08T07:42:01;4.60;;;3.05;;
59974;SDS011;62136;-35.664;-63.766;2023-09-08T07:44:28;5.03;;;2.92;;
59974;SDS011;62136;-35.664;-63.766;2023-09-08T07:46:55;8.15;;;3.88;;
59974;SDS011;62136;-35.664;-63.766;2023-09-08T07:49:22;3.97;;;3.10;;
59974;SDS011;62136;-35.664;-63.766;2023-09-08T07:51:50;5.03;;;2.97;;
59974;SDS011;62136;-35.664;-63.766;2023-09-08T07:54:17;4.50;;;2.88;;
59974;SDS011;62136;-35.664;-63.766;2023-09-08T07:56:44;4.18;;;3.17;;
59974;SDS011;62136;-35.664;-63.766;2023-09-08T07:59:11;4.22;;;2.88;;
59974;SDS011;62136;-35.664;-63.766;2023-09-08T08:01:38;3.58;;;2.95;;
59974;SDS011;62136;-35.664;-63.766;2023-09-08T08:04:05;4.28;;;2.60;;
59974;SDS011;62136;-35.664;-63.766;2023-09-08T08:06:32;3.97;;;3.22;;
59974;SDS011;62136;-35.664;-63.766;2023-09-08T08:08:59;4.53;;;2.85;;
59974;SDS011;62136;-35.664;-63.766;2023-09-08T08:11:26;4.90;;;2.78;;
59974;SDS011;62136;-35.664;-63.766;2023-09-08T08:13:53;5.97;;;2.92;;
59974;SDS011;62136;-35.664;-63.766;2023-09-08T08:16:22;5.65;;;2.80;;
59974;SDS011;62136;-35.664;-63.766;2023-09-08T08:18:49;4.53;;;3.17;;
59974;SDS011;62136;-35.664;-63.766;2023-09-08T08:21:16;4.60;;;2.63;;
59974;SDS011;62136;-35.664;-63.766;2023-09-08T08:23:43;4.88;;;2.80;;
59974;SDS011;62136;-35.664;-63.766;2023-09-08T08:26:10;3.90;;;2.42;;
59974;SDS011;62136;-35.664;-63.766;2023-09-08T08:28:37;3.22;;;2.60;;
59974;SDS011;62136;-35.664;-63.766;2023-09-08T08:31:05;3.38;;;2.70;;
59974;SDS011;62136;-35.664;-63.766;2023-09-08T08:33:32;4.15;;;2.40;;
59974;SDS011;62136;-35.664;-63.766;2023-09-08T08:35:59;4.47;;;2.67;;
59974;SDS011;62136;-35.664;-63.766;2023-09-08T08:38:26;3.40;;;2.42;;
59974;SDS011;62136;-35.664;-63.766;2023-09-08T08:40:53;5.47;;;2.85;;
59974;SDS011;62136;-35.664;-63.766;2023-09-08T08:43:21;5.70;;;2.75;;
59974;SDS011;62136;-35.664;-63.766;2023-09-08T08:45:49;4.95;;;2.33;;
59974;SDS011;62136;-35.664;-63.766;2023-09-08T08:48:18;3.72;;;2.40;;
59974;SDS011;62136;-35.664;-63.766;2023-09-08T08:50:47;3.65;;;2.85;;
59974;SDS011;62136;-35.664;-63.766;2023-09-08T08:53:15;5.38;;;3.33;;
59974;SDS011;62136;-35.664;-63.766;2023-09-08T08:55:46;3.10;;;2.55;;
59974;SDS011;62136;-35.664;-63.766;2023-09-08T08:58:15;3.40;;;2.75;;
59974;SDS011;62136;-35.664;-63.766;2023-09-08T09:00:43;2.55;;;2.25;;
59974;SDS011;62136;-35.664;-63.766;2023-09-08T09:03:11;3.45;;;2.20;;
59974;SDS011;62136;-35.664;-63.766;2023-09-08T09:05:39;6.97;;;2.55;;
59974;SDS011;62136;-35.664;-63.766;2023-09-08T09:08:07;2.65;;;2.25;;
59974;SDS011;62136;-35.664;-63.766;2023-09-08T09:10:36;3.13;;;2.17;;
59974;SDS011;62136;-35.664;-63.766;2023-09-08T09:13:03;3.60;;;2.10;;
59974;SDS011;62136;-35.664;-63.766;2023-09-08T09:15:31;4.45;;;2.35;;
59974;SDS011;62136;-35.664;-63.766;2023-09-08T09:18:01;3.60;;;2.20;;
59974;SDS011;62136;-35.664;-63.766;2023-09-08T09:20:30;6.57;;;2.75;;
59974;SDS011;62136;-35.664;-63.766;2023-09-08T09:22:57;1.98;;;1.75;;
59974;SDS011;62136;-35.664;-63.766;2023-09-08T09:25:28;4.53;;;2.63;;
59974;SDS011;62136;-35.664;-63.766;2023-09-08T09:27:57;2.95;;;2.20;;
59974;SDS011;62136;-35.664;-63.766;2023-09-08T09:30:26;2.47;;;1.90;;
59974;SDS011;62136;-35.664;-63.766;2023-09-08T09:33:02;3.20;;;1.90;;
59974;SDS011;62136;-35.664;-63.766;2023-09-08T09:38:17;4.00;;;2.25;;
59974;SDS011;62136;-35.664;-63.766;2023-09-08T09:40:46;2.55;;;1.85;;
59974;SDS011;62136;-35.664;-63.766;2023-09-08T09:43:15;3.17;;;2.10;;
59974;SDS011;62136;-35.664;-63.766;2023-09-08T09:45:46;2.70;;;2.05;;
59974;SDS011;62136;-35.664;-63.766;2023-09-08T09:48:13;4.25;;;2.10;;
59974;SDS011;62136;-35.664;-63.766;2023-09-08T09:50:41;3.70;;;2.22;;
59974;SDS011;62136;-35.664;-63.766;2023-09-08T09:53:15;4.50;;;2.25;;
59974;SDS011;62136;-35.664;-63.766;2023-09-08T09:55:43;3.22;;;1.92;;
59974;SDS011;62136;-35.664;-63.766;2023-09-08T09:58:11;2.38;;;1.60;;
59974;SDS011;62136;-35.664;-63.766;2023-09-08T10:00:39;3.33;;;2.30;;
59974;SDS011;62136;-35.664;-63.766;2023-09-08T10:03:07;3.22;;;2.08;;
59974;SDS011;62136;-35.664;-63.766;2023-09-08T10:05:34;3.95;;;1.77;;
59974;SDS011;62136;-35.664;-63.766;2023-09-08T10:08:01;3.97;;;2.55;;
59974;SDS011;62136;-35.664;-63.766;2023-09-08T10:10:29;3.10;;;2.00;;
59974;SDS011;62136;-35.664;-63.766;2023-09-08T10:12:59;1.92;;;1.63;;
59974;SDS011;62136;-35.664;-63.766;2023-09-08T10:15:28;2.90;;;1.80;;
59974;SDS011;62136;-35.664;-63.766;2023-09-08T10:17:57;3.25;;;2.13;;
59974;SDS011;62136;-35.664;-63.766;2023-09-08T10:20:26;1.80;;;1.70;;
59974;SDS011;62136;-35.664;-63.766;2023-09-08T10:23:12;3.17;;;1.98;;
59974;SDS011;62136;-35.664;-63.766;2023-09-08T10:25:47;2.45;;;1.80;;
59974;SDS011;62136;-35.664;-63.766;2023-09-08T10:28:21;2.08;;;1.88;;
59974;SDS011;62136;-35.664;-63.766;2023-09-08T10:30:49;2.78;;;1.85;;
59974;SDS011;62136;-35.664;-63.766;2023-09-08T10:33:17;3.17;;;1.92;;
59974;SDS011;62136;-35.664;-63.766;2023-09-08T10:35:45;2.17;;;1.90;;
59974;SDS011;62136;-35.664;-63.766;2023-09-08T10:38:22;1.92;;;1.73;;
59974;SDS011;62136;-35.664;-63.766;2023-09-08T10:40:54;1.83;;;1.60;;
59974;SDS011;62136;-35.664;-63.766;2023-09-08T10:43:43;2.72;;;1.80;;
59974;SDS011;62136;-35.664;-63.766;2023-09-08T10:46:11;3.55;;;2.10;;
59974;SDS011;62136;-35.664;-63.766;2023-09-08T10:48:53;1.92;;;1.60;;
59974;SDS011;62136;-35.664;-63.766;2023-09-08T10:51:21;2.72;;;2.00;;
59974;SDS011;62136;-35.664;-63.766;2023-09-08T10:53:50;1.65;;;1.38;;
59974;SDS011;62136;-35.664;-63.766;2023-09-08T10:56:17;1.98;;;1.70;;
59974;SDS011;62136;-35.664;-63.766;2023-09-08T10:58:48;1.85;;;1.70;;
59974;SDS011;62136;-35.664;-63.766;2023-09-08T11:01:23;2.67;;;2.00;;
59974;SDS011;62136;-35.664;-63.766;2023-09-08T11:03:56;1.60;;;1.50;;
59974;SDS011;62136;-35.664;-63.766;2023-09-08T11:06:24;2.58;;;2.00;;
59974;SDS011;62136;-35.664;-63.766;2023-09-08T11:08:55;2.97;;;1.90;;
59974;SDS011;62136;-35.664;-63.766;2023-09-08T11:11:31;3.08;;;1.90;;
59974;SDS011;62136;-35.664;-63.766;2023-09-08T11:13:59;2.35;;;1.63;;
59974;SDS011;62136;-35.664;-63.766;2023-09-08T11:16:26;3.13;;;1.80;;
59974;SDS011;62136;-35.664;-63.766;2023-09-08T11:18:57;3.47;;;1.55;;
59974;SDS011;62136;-35.664;-63.766;2023-09-08T11:21:24;2.40;;;1.60;;
59974;SDS011;62136;-35.664;-63.766;2023-09-08T11:23:51;2.20;;;1.90;;
59974;SDS011;62136;-35.664;-63.766;2023-09-08T11:26:18;2.70;;;2.22;;
59974;SDS011;62136;-35.664;-63.766;2023-09-08T11:28:45;2.72;;;2.10;;
59974;SDS011;62136;-35.664;-63.766;2023-09-08T11:31:14;2.83;;;2.03;;
59974;SDS011;62136;-35.664;-63.766;2023-09-08T11:33:43;3.38;;;2.00;;
59974;SDS011;62136;-35.664;-63.766;2023-09-08T11:36:13;1.90;;;1.80;;
59974;SDS011;62136;-35.664;-63.766;2023-09-08T11:38:42;3.38;;;2.58;;
59974;SDS011;62136;-35.664;-63.766;2023-09-08T11:41:12;3.17;;;2.28;;
59974;SDS011;62136;-35.664;-63.766;2023-09-08T11:43:40;3.85;;;2.38;;
59974;SDS011;62136;-35.664;-63.766;2023-09-08T11:46:07;3.92;;;1.73;;
59974;SDS011;62136;-35.664;-63.766;2023-09-08T11:48:36;3.20;;;2.28;;
59974;SDS011;62136;-35.664;-63.766;2023-09-08T11:51:05;2.90;;;2.17;;
59974;SDS011;62136;-35.664;-63.766;2023-09-08T11:53:35;3.03;;;2.47;;
59974;SDS011;62136;-35.664;-63.766;2023-09-08T11:56:04;2.33;;;2.05;;
59974;SDS011;62136;-35.664;-63.766;2023-09-08T11:58:31;2.92;;;2.00;;
59974;SDS011;62136;-35.664;-63.766;2023-09-08T12:00:59;2.67;;;2.28;;
59974;SDS011;62136;-35.664;-63.766;2023-09-08T12:03:30;2.50;;;2.30;;
59974;SDS011;62136;-35.664;-63.766;2023-09-08T12:05:57;4.55;;;2.15;;
59974;SDS011;62136;-35.664;-63.766;2023-09-08T12:08:25;2.90;;;2.30;;
59974;SDS011;62136;-35.664;-63.766;2023-09-08T12:10:54;2.92;;;2.10;;
59974;SDS011;62136;-35.664;-63.766;2023-09-08T12:13:22;3.00;;;1.95;;
59974;SDS011;62136;-35.664;-63.766;2023-09-08T12:15:50;2.88;;;2.33;;
59974;SDS011;62136;-35.664;-63.766;2023-09-08T12:18:18;3.03;;;1.95;;
59974;SDS011;62136;-35.664;-63.766;2023-09-08T12:20:45;3.42;;;2.10;;
59974;SDS011;62136;-35.664;-63.766;2023-09-08T12:23:20;4.25;;;2.20;;
59974;SDS011;62136;-35.664;-63.766;2023-09-08T12:25:49;2.70;;;2.17;;
59974;SDS011;62136;-35.664;-63.766;2023-09-08T12:28:20;3.20;;;2.00;;
59974;SDS011;62136;-35.664;-63.766;2023-09-08T12:30:51;2.38;;;2.05;;
59974;SDS011;62136;-35.664;-63.766;2023-09-08T12:33:19;2.35;;;1.92;;
59974;SDS011;62136;-35.664;-63.766;2023-09-08T12:35:47;3.10;;;2.22;;
59974;SDS011;62136;-35.664;-63.766;2023-09-08T12:38:18;2.40;;;2.08;;
59974;SDS011;62136;-35.664;-63.766;2023-09-08T12:40:48;2.38;;;2.17;;
59974;SDS011;62136;-35.664;-63.766;2023-09-08T12:43:15;3.15;;;2.08;;
59974;SDS011;62136;-35.664;-63.766;2023-09-08T12:45:42;2.58;;;2.03;;
59974;SDS011;62136;-35.664;-63.766;2023-09-08T12:48:10;2.25;;;1.90;;
59974;SDS011;62136;-35.664;-63.766;2023-09-08T12:50:37;2.33;;;1.80;;
59974;SDS011;62136;-35.664;-63.766;2023-09-08T12:53:04;4.95;;;2.58;;
59974;SDS011;62136;-35.664;-63.766;2023-09-08T12:55:34;3.83;;;2.55;;
59974;SDS011;62136;-35.664;-63.766;2023-09-08T12:58:01;2.15;;;1.95;;
59974;SDS011;62136;-35.664;-63.766;2023-09-08T13:00:30;3.15;;;2.05;;
59974;SDS011;62136;-35.664;-63.766;2023-09-08T13:02:58;4.30;;;2.20;;
59974;SDS011;62136;-35.664;-63.766;2023-09-08T13:05:26;3.67;;;2.17;;
59974;SDS011;62136;-35.664;-63.766;2023-09-08T13:07:53;4.07;;;2.33;;
59974;SDS011;62136;-35.664;-63.766;2023-09-08T13:10:20;4.07;;;2.08;;
59974;SDS011;62136;-35.664;-63.766;2023-09-08T13:12:47;3.08;;;1.95;;
59974;SDS011;62136;-35.664;-63.766;2023-09-08T13:15:15;2.47;;;1.80;;
59974;SDS011;62136;-35.664;-63.766;2023-09-08T13:17:42;5.60;;;2.42;;
59974;SDS011;62136;-35.664;-63.766;2023-09-08T13:20:10;3.55;;;2.13;;
59974;SDS011;62136;-35.664;-63.766;2023-09-08T13:22:38;3.25;;;2.00;;
59974;SDS011;62136;-35.664;-63.766;2023-09-08T13:25:11;4.05;;;1.95;;
59974;SDS011;62136;-35.664;-63.766;2023-09-08T13:27:42;4.38;;;1.88;;
59974;SDS011;62136;-35.664;-63.766;2023-09-08T13:30:13;4.70;;;1.80;;
59974;SDS011;62136;-35.664;-63.766;2023-09-08T13:32:41;2.58;;;1.88;;
59974;SDS011;62136;-35.664;-63.766;2023-09-08T13:35:09;3.28;;;2.15;;
59974;SDS011;62136;-35.664;-63.766;2023-09-08T13:37:38;2.90;;;1.70;;
59974;SDS011;62136;-35.664;-63.766;2023-09-08T13:40:12;9.25;;;2.03;;
59974;SDS011;62136;-35.664;-63.766;2023-09-08T13:42:44;2.97;;;1.60;;
59974;SDS011;62136;-35.664;-63.766;2023-09-08T13:45:11;3.55;;;1.58;;
59974;SDS011;62136;-35.664;-63.766;2023-09-08T13:47:38;3.22;;;1.60;;
59974;SDS011;62136;-35.664;-63.766;2023-09-08T13:50:11;2.90;;;1.40;;
59974;SDS011;62136;-35.664;-63.766;2023-09-08T13:52:38;3.83;;;1.40;;
59974;SDS011;62136;-35.664;-63.766;2023-09-08T13:55:08;4.82;;;1.90;;
59974;SDS011;62136;-35.664;-63.766;2023-09-08T13:57:36;2.20;;;1.27;;
59974;SDS011;62136;-35.664;-63.766;2023-09-08T14:00:04;5.15;;;1.75;;
59974;SDS011;62136;-35.664;-63.766;2023-09-08T14:02:34;3.30;;;1.90;;
59974;SDS011;62136;-35.664;-63.766;2023-09-08T14:05:01;2.22;;;1.52;;
59974;SDS011;62136;-35.664;-63.766;2023-09-08T14:07:28;1.52;;;1.40;;
59974;SDS011;62136;-35.664;-63.766;2023-09-08T14:09:56;3.67;;;1.70;;
59974;SDS011;62136;-35.664;-63.766;2023-09-08T14:12:23;2.72;;;1.58;;
59974;SDS011;62136;-35.664;-63.766;2023-09-08T14:14:50;2.28;;;1.80;;